sensor_id;sensor_type;location;lat;lon;timestamp;P1;durP1;ratioP1;P2;durP2;ratioP2
50695;SDS011;36665;51.786;21.594;2023-02-28T00:00:57;337.80;;;93.80;;
50695;SDS011;36665;51.786;21.594;2023-02-28T00:09:20;277.00;;;54.40;;
50695;SDS011;36665;51.786;21.594;2023-02-28T00:17:43;340.00;;;66.70;;
50695;SDS011;36665;51.786;21.594;2023-02-28T00:26:06;275.80;;;60.00;;
50695;SDS011;36665;51.786;21.594;2023-02-28T00:34:29;312.40;;;77.70;;
50695;SDS011;36665;51.786;21.594;2023-02-28T00:42:52;277.50;;;71.00;;
50695;SDS011;36665;51.786;21.594;2023-02-28T00:51:16;239.00;;;67.80;;
50695;SDS011;36665;51.786;21.594;2023-02-28T00:59:39;144.40;;;45.50;;
50695;SDS011;36665;51.786;21.594;2023-02-28T01:08:03;159.60;;;47.60;;
50695;SDS011;36665;51.786;21.594;2023-02-28T01:16:26;183.30;;;52.60;;
50695;SDS011;36665;51.786;21.594;2023-02-28T01:24:50;226.10;;;66.10;;
50695;SDS011;36665;51.786;21.594;2023-02-28T01:33:13;213.90;;;59.70;;
50695;SDS011;36665;51.786;21.594;2023-02-28T01:41:36;150.80;;;43.10;;
50695;SDS011;36665;51.786;21.594;2023-02-28T01:49:59;153.80;;;40.50;;
50695;SDS011;36665;51.786;21.594;2023-02-28T01:58:25;83.60;;;27.50;;
50695;SDS011;36665;51.786;21.594;2023-02-28T02:06:49;68.10;;;23.70;;
50695;SDS011;36665;51.786;21.594;2023-02-28T02:15:14;60.50;;;19.90;;
50695;SDS011;36665;51.786;21.594;2023-02-28T02:32:47;52.80;;;20.40;;
50695;SDS011;36665;51.786;21.594;2023-02-28T02:41:50;43.90;;;16.90;;
50695;SDS011;36665;51.786;21.594;2023-02-28T02:50:24;48.20;;;17.50;;
50695;SDS011;36665;51.786;21.594;2023-02-28T02:58:53;24.40;;;10.00;;
50695;SDS011;36665;51.786;21.594;2023-02-28T03:07:22;46.70;;;18.70;;
50695;SDS011;36665;51.786;21.594;2023-02-28T03:15:50;44.10;;;18.00;;
50695;SDS011;36665;51.786;21.594;2023-02-28T03:24:20;29.00;;;12.90;;
50695;SDS011;36665;51.786;21.594;2023-02-28T03:33:24;15.90;;;7.90;;
50695;SDS011;36665;51.786;21.594;2023-02-28T03:41:54;14.80;;;7.80;;
50695;SDS011;36665;51.786;21.594;2023-02-28T03:59:20;14.60;;;7.30;;
50695;SDS011;36665;51.786;21.594;2023-02-28T04:07:48;15.90;;;7.10;;
50695;SDS011;36665;51.786;21.594;2023-02-28T04:16:11;53.30;;;17.30;;
50695;SDS011;36665;51.786;21.594;2023-02-28T04:24:53;17.20;;;10.00;;
50695;SDS011;36665;51.786;21.594;2023-02-28T04:33:17;16.80;;;8.00;;
50695;SDS011;36665;51.786;21.594;2023-02-28T04:41:40;18.80;;;9.50;;
50695;SDS011;36665;51.786;21.594;2023-02-28T04:50:09;18.10;;;9.00;;
50695;SDS011;36665;51.786;21.594;2023-02-28T04:58:34;16.90;;;8.20;;
50695;SDS011;36665;51.786;21.594;2023-02-28T05:06:57;22.40;;;11.80;;
50695;SDS011;36665;51.786;21.594;2023-02-28T05:15:21;20.30;;;8.60;;
50695;SDS011;36665;51.786;21.594;2023-02-28T05:23:44;13.00;;;7.20;;
50695;SDS011;36665;51.786;21.594;2023-02-28T05:32:10;20.20;;;10.40;;
50695;SDS011;36665;51.786;21.594;2023-02-28T05:40:34;23.00;;;11.00;;
50695;SDS011;36665;51.786;21.594;2023-02-28T05:48:58;19.10;;;8.60;;
50695;SDS011;36665;51.786;21.594;2023-02-28T05:57:23;27.20;;;12.20;;
50695;SDS011;36665;51.786;21.594;2023-02-28T06:05:49;64.40;;;30.80;;
50695;SDS011;36665;51.786;21.594;2023-02-28T06:14:17;20.50;;;10.70;;
50695;SDS011;36665;51.786;21.594;2023-02-28T06:22:42;29.60;;;12.80;;
50695;SDS011;36665;51.786;21.594;2023-02-28T06:31:09;38.60;;;18.50;;
50695;SDS011;36665;51.786;21.594;2023-02-28T06:39:38;53.40;;;21.90;;
50695;SDS011;36665;51.786;21.594;2023-02-28T06:48:01;51.00;;;20.50;;
50695;SDS011;36665;51.786;21.594;2023-02-28T06:56:24;28.10;;;13.10;;
50695;SDS011;36665;51.786;21.594;2023-02-28T07:04:47;40.60;;;17.80;;
50695;SDS011;36665;51.786;21.594;2023-02-28T07:13:11;90.20;;;35.70;;
50695;SDS011;36665;51.786;21.594;2023-02-28T07:21:34;32.50;;;15.00;;
50695;SDS011;36665;51.786;21.594;2023-02-28T07:29:57;37.90;;;15.70;;
50695;SDS011;36665;51.786;21.594;2023-02-28T07:38:24;16.30;;;8.50;;
50695;SDS011;36665;51.786;21.594;2023-02-28T07:46:48;16.40;;;7.60;;
50695;SDS011;36665;51.786;21.594;2023-02-28T07:55:11;27.60;;;7.00;;
50695;SDS011;36665;51.786;21.594;2023-02-28T08:03:34;14.00;;;7.10;;
50695;SDS011;36665;51.786;21.594;2023-02-28T08:11:58;10.20;;;6.50;;
50695;SDS011;36665;51.786;21.594;2023-02-28T08:20:21;16.30;;;8.20;;
50695;SDS011;36665;51.786;21.594;2023-02-28T08:28:46;13.40;;;6.80;;
50695;SDS011;36665;51.786;21.594;2023-02-28T08:37:09;24.00;;;7.40;;
50695;SDS011;36665;51.786;21.594;2023-02-28T08:45:33;12.30;;;6.80;;
50695;SDS011;36665;51.786;21.594;2023-02-28T08:54:00;12.10;;;6.90;;
50695;SDS011;36665;51.786;21.594;2023-02-28T09:02:23;10.30;;;6.80;;
50695;SDS011;36665;51.786;21.594;2023-02-28T09:10:46;22.30;;;12.90;;
50695;SDS011;36665;51.786;21.594;2023-02-28T09:19:13;16.20;;;10.00;;
50695;SDS011;36665;51.786;21.594;2023-02-28T09:27:36;14.10;;;8.40;;
50695;SDS011;36665;51.786;21.594;2023-02-28T09:36:00;13.50;;;7.40;;
50695;SDS011;36665;51.786;21.594;2023-02-28T09:44:28;11.60;;;6.60;;
50695;SDS011;36665;51.786;21.594;2023-02-28T09:52:59;12.90;;;7.20;;
50695;SDS011;36665;51.786;21.594;2023-02-28T10:01:25;29.90;;;16.80;;
50695;SDS011;36665;51.786;21.594;2023-02-28T10:09:57;14.50;;;8.00;;
50695;SDS011;36665;51.786;21.594;2023-02-28T10:18:26;11.70;;;7.00;;
50695;SDS011;36665;51.786;21.594;2023-02-28T10:26:55;10.80;;;7.50;;
50695;SDS011;36665;51.786;21.594;2023-02-28T10:35:23;12.70;;;7.30;;
50695;SDS011;36665;51.786;21.594;2023-02-28T10:43:51;12.90;;;7.70;;
50695;SDS011;36665;51.786;21.594;2023-02-28T10:52:32;15.90;;;7.40;;
50695;SDS011;36665;51.786;21.594;2023-02-28T11:01:01;12.80;;;7.20;;
50695;SDS011;36665;51.786;21.594;2023-02-28T11:09:27;12.60;;;7.00;;
50695;SDS011;36665;51.786;21.594;2023-02-28T11:17:56;11.80;;;6.90;;
50695;SDS011;36665;51.786;21.594;2023-02-28T11:26:35;16.40;;;8.00;;
50695;SDS011;36665;51.786;21.594;2023-02-28T11:52:34;12.90;;;7.50;;
50695;SDS011;36665;51.786;21.594;2023-02-28T12:18:50;13.30;;;7.80;;
50695;SDS011;36665;51.786;21.594;2023-02-28T12:27:25;12.00;;;7.50;;
50695;SDS011;36665;51.786;21.594;2023-02-28T12:35:57;13.00;;;6.90;;
50695;SDS011;36665;51.786;21.594;2023-02-28T13:10:10;12.40;;;7.70;;
50695;SDS011;36665;51.786;21.594;2023-02-28T13:35:35;12.20;;;6.90;;
50695;SDS011;36665;51.786;21.594;2023-02-28T13:52:29;15.40;;;7.60;;
50695;SDS011;36665;51.786;21.594;2023-02-28T14:09:57;17.90;;;7.40;;
50695;SDS011;36665;51.786;21.594;2023-02-28T14:52:44;116.40;;;46.50;;
50695;SDS011;36665;51.786;21.594;2023-02-28T15:01:09;39.80;;;17.80;;
50695;SDS011;36665;51.786;21.594;2023-02-28T15:09:32;29.90;;;12.40;;
50695;SDS011;36665;51.786;21.594;2023-02-28T15:17:56;136.40;;;56.80;;
50695;SDS011;36665;51.786;21.594;2023-02-28T15:26:22;45.10;;;21.70;;
50695;SDS011;36665;51.786;21.594;2023-02-28T15:34:54;103.20;;;42.60;;
50695;SDS011;36665;51.786;21.594;2023-02-28T15:43:23;28.30;;;14.80;;
50695;SDS011;36665;51.786;21.594;2023-02-28T15:51:48;43.50;;;18.30;;
50695;SDS011;36665;51.786;21.594;2023-02-28T16:00:15;73.30;;;34.30;;
50695;SDS011;36665;51.786;21.594;2023-02-28T16:08:42;66.10;;;27.90;;
50695;SDS011;36665;51.786;21.594;2023-02-28T16:17:07;62.90;;;23.30;;
50695;SDS011;36665;51.786;21.594;2023-02-28T16:25:42;51.00;;;20.70;;
50695;SDS011;36665;51.786;21.594;2023-02-28T16:34:07;44.90;;;20.60;;
50695;SDS011;36665;51.786;21.594;2023-02-28T16:42:30;109.80;;;46.80;;
50695;SDS011;36665;51.786;21.594;2023-02-28T16:50:54;101.40;;;44.80;;
50695;SDS011;36665;51.786;21.594;2023-02-28T16:59:19;121.80;;;49.10;;
50695;SDS011;36665;51.786;21.594;2023-02-28T17:07:46;63.60;;;26.60;;
50695;SDS011;36665;51.786;21.594;2023-02-28T17:16:13;80.50;;;33.20;;
50695;SDS011;36665;51.786;21.594;2023-02-28T17:24:50;69.40;;;30.60;;
50695;SDS011;36665;51.786;21.594;2023-02-28T17:33:14;82.10;;;34.80;;
50695;SDS011;36665;51.786;21.594;2023-02-28T17:41:42;55.20;;;26.70;;
50695;SDS011;36665;51.786;21.594;2023-02-28T17:50:05;77.90;;;22.90;;
50695;SDS011;36665;51.786;21.594;2023-02-28T17:58:36;161.50;;;58.30;;
50695;SDS011;36665;51.786;21.594;2023-02-28T18:06:59;267.30;;;97.10;;
50695;SDS011;36665;51.786;21.594;2023-02-28T18:15:22;275.20;;;106.30;;
50695;SDS011;36665;51.786;21.594;2023-02-28T18:23:46;195.00;;;71.80;;
50695;SDS011;36665;51.786;21.594;2023-02-28T18:32:10;277.30;;;86.00;;
50695;SDS011;36665;51.786;21.594;2023-02-28T18:40:34;164.80;;;53.50;;
50695;SDS011;36665;51.786;21.594;2023-02-28T18:48:57;300.10;;;111.90;;
50695;SDS011;36665;51.786;21.594;2023-02-28T18:57:22;275.50;;;101.90;;
50695;SDS011;36665;51.786;21.594;2023-02-28T19:05:45;175.30;;;62.40;;
50695;SDS011;36665;51.786;21.594;2023-02-28T19:14:09;188.40;;;70.60;;
50695;SDS011;36665;51.786;21.594;2023-02-28T19:22:33;179.50;;;64.60;;
50695;SDS011;36665;51.786;21.594;2023-02-28T19:30:58;135.10;;;53.40;;
50695;SDS011;36665;51.786;21.594;2023-02-28T19:39:22;172.80;;;64.50;;
50695;SDS011;36665;51.786;21.594;2023-02-28T19:47:45;561.70;;;285.70;;
50695;SDS011;36665;51.786;21.594;2023-02-28T19:56:09;392.90;;;112.70;;
50695;SDS011;36665;51.786;21.594;2023-02-28T20:04:33;422.10;;;152.70;;
50695;SDS011;36665;51.786;21.594;2023-02-28T20:12:56;469.30;;;169.10;;
50695;SDS011;36665;51.786;21.594;2023-02-28T20:21:19;562.90;;;232.60;;
50695;SDS011;36665;51.786;21.594;2023-02-28T20:29:42;806.10;;;338.10;;
50695;SDS011;36665;51.786;21.594;2023-02-28T20:38:05;551.40;;;219.00;;
50695;SDS011;36665;51.786;21.594;2023-02-28T20:46:29;612.70;;;262.20;;
50695;SDS011;36665;51.786;21.594;2023-02-28T20:54:53;591.40;;;252.50;;
50695;SDS011;36665;51.786;21.594;2023-02-28T21:03:16;576.80;;;227.80;;
50695;SDS011;36665;51.786;21.594;2023-02-28T21:11:39;566.60;;;229.90;;
50695;SDS011;36665;51.786;21.594;2023-02-28T21:20:03;470.10;;;168.80;;
50695;SDS011;36665;51.786;21.594;2023-02-28T21:28:26;406.50;;;144.10;;
50695;SDS011;36665;51.786;21.594;2023-02-28T21:36:49;450.60;;;162.50;;
50695;SDS011;36665;51.786;21.594;2023-02-28T21:45:15;436.30;;;152.30;;
50695;SDS011;36665;51.786;21.594;2023-02-28T21:53:39;399.30;;;139.20;;
50695;SDS011;36665;51.786;21.594;2023-02-28T22:02:03;425.10;;;158.70;;
50695;SDS011;36665;51.786;21.594;2023-02-28T22:10:27;329.60;;;118.50;;
50695;SDS011;36665;51.786;21.594;2023-02-28T22:18:50;412.90;;;147.20;;
50695;SDS011;36665;51.786;21.594;2023-02-28T22:27:13;192.60;;;72.50;;
50695;SDS011;36665;51.786;21.594;2023-02-28T22:35:36;253.60;;;87.20;;
50695;SDS011;36665;51.786;21.594;2023-02-28T22:44:00;225.20;;;79.20;;
50695;SDS011;36665;51.786;21.594;2023-02-28T22:52:25;253.20;;;82.90;;
50695;SDS011;36665;51.786;21.594;2023-02-28T23:00:48;297.80;;;97.00;;
50695;SDS011;36665;51.786;21.594;2023-02-28T23:09:15;185.70;;;62.30;;
50695;SDS011;36665;51.786;21.594;2023-02-28T23:17:40;207.00;;;72.60;;
50695;SDS011;36665;51.786;21.594;2023-02-28T23:26:05;218.20;;;75.40;;
50695;SDS011;36665;51.786;21.594;2023-02-28T23:34:29;182.60;;;67.60;;
50695;SDS011;36665;51.786;21.594;2023-02-28T23:42:53;131.70;;;47.90;;
50695;SDS011;36665;51.786;21.594;2023-02-28T23:51:17;99.50;;;40.70;;
50695;SDS011;36665;51.786;21.594;2023-02-28T23:59:42;127.90;;;49.70;;
